createdAt,value
2023-02-05T00:01:18.325Z,13.07
2023-02-05T00:03:46.289Z,13.07
2023-02-05T00:06:14.131Z,13.02
2023-02-05T00:08:42.326Z,13.20
2023-02-05T00:11:10.811Z,12.02
2023-02-05T00:13:40.021Z,13.02
2023-02-05T00:16:12.681Z,13.13
2023-02-05T00:18:41.226Z,12.15
2023-02-05T00:21:09.568Z,13.23
2023-02-05T00:23:37.571Z,13.10
2023-02-05T00:26:05.946Z,13.55
2023-02-05T00:28:34.698Z,13.02
2023-02-05T00:31:16.993Z,13.18
2023-02-05T00:33:45.362Z,12.93
2023-02-05T00:36:13.543Z,13.25
2023-02-05T00:38:42.174Z,13.15
2023-02-05T00:41:10.542Z,13.40
2023-02-05T00:43:39.441Z,13.88
2023-02-05T00:46:08.037Z,13.57
2023-02-05T00:48:36.054Z,13.45
2023-02-05T00:51:03.976Z,14.20
2023-02-05T00:53:32.655Z,13.13
2023-02-05T00:56:00.608Z,12.70
2023-02-05T00:58:28.818Z,14.02
2023-02-05T01:00:57.838Z,13.88
2023-02-05T01:03:26.161Z,13.18
2023-02-05T01:05:54.198Z,13.82
2023-02-05T01:08:22.206Z,13.88
2023-02-05T01:10:50.743Z,13.43
2023-02-05T01:13:19.730Z,13.10
2023-02-05T01:15:50.197Z,12.98
2023-02-05T01:18:22.840Z,14.43
2023-02-05T01:20:50.830Z,14.02
2023-02-05T01:23:19.098Z,15.48
2023-02-05T01:25:46.909Z,14.32
2023-02-05T01:28:18.478Z,13.68
2023-02-05T01:30:50.296Z,15.80
2023-02-05T01:33:24.917Z,15.23
2023-02-05T01:35:54.001Z,15.68
2023-02-05T01:38:22.084Z,15.52
2023-02-05T01:40:50.550Z,15.05
2023-02-05T01:43:19.125Z,14.35
2023-02-05T01:46:05.645Z,14.85
2023-02-05T01:48:41.098Z,15.15
2023-02-05T01:51:10.337Z,14.88
2023-02-05T01:53:38.502Z,15.13
2023-02-05T01:56:09.717Z,15.45
2023-02-05T01:58:47.532Z,14.70
2023-02-05T02:01:15.681Z,15.82
2023-02-05T02:03:44.392Z,16.10
2023-02-05T02:06:12.202Z,16.70
2023-02-05T02:08:41.619Z,15.43
2023-02-05T02:11:09.878Z,15.90
2023-02-05T02:13:39.180Z,16.55
2023-02-05T02:16:08.413Z,17.27
2023-02-05T02:18:37.540Z,16.02
2023-02-05T02:21:36.774Z,17.13
2023-02-05T02:24:26.880Z,16.67
2023-02-05T02:27:06.041Z,17.38
2023-02-05T02:29:40.970Z,17.33
2023-02-05T02:32:23.541Z,19.17
2023-02-05T02:34:56.845Z,18.55
2023-02-05T02:38:06.858Z,17.17
2023-02-05T02:40:54.037Z,17.67
2023-02-05T02:43:27.864Z,18.20
2023-02-05T02:46:00.858Z,18.00
2023-02-05T02:48:30.257Z,18.38
2023-02-05T02:50:59.369Z,17.23
2023-02-05T02:53:38.769Z,15.57
2023-02-05T02:56:08.294Z,16.63
2023-02-05T02:58:47.702Z,15.23
2023-02-05T03:01:19.701Z,16.52
2023-02-05T03:03:54.517Z,15.68
2023-02-05T03:06:22.556Z,15.35
2023-02-05T03:09:04.489Z,17.42
2023-02-05T03:11:34.717Z,16.95
2023-02-05T03:14:02.875Z,18.38
2023-02-05T03:16:35.744Z,16.95
2023-02-05T03:19:06.497Z,15.90
2023-02-05T03:21:40.841Z,15.85
2023-02-05T03:24:09.262Z,14.70
2023-02-05T03:26:40.716Z,15.05
2023-02-05T03:29:16.696Z,14.73
2023-02-05T03:32:11.336Z,15.10
2023-02-05T03:35:14.742Z,14.43
2023-02-05T03:37:59.183Z,12.15
2023-02-05T03:40:41.922Z,14.55
2023-02-05T03:43:30.287Z,12.88
2023-02-05T03:46:16.854Z,12.48
2023-02-05T03:49:07.139Z,13.13
2023-02-05T03:51:44.645Z,12.52
2023-02-05T03:54:24.886Z,13.90
2023-02-05T03:57:04.615Z,13.55
2023-02-05T03:59:35.093Z,12.93
2023-02-05T04:02:04.924Z,13.70
2023-02-05T04:04:38.441Z,12.63
2023-02-05T04:07:09.223Z,14.00
2023-02-05T04:09:40.700Z,13.55
2023-02-05T04:12:37.788Z,13.15
2023-02-05T04:15:09.277Z,13.05
2023-02-05T04:17:40.082Z,12.73
2023-02-05T04:20:08.666Z,12.43
2023-02-05T04:22:36.565Z,13.55
2023-02-05T04:25:05.423Z,12.38
2023-02-05T04:27:33.949Z,11.68
2023-02-05T04:30:03.937Z,12.80
2023-02-05T04:32:36.005Z,13.00
2023-02-05T04:35:04.739Z,14.45
2023-02-05T04:37:36.320Z,12.93
2023-02-05T04:40:05.096Z,13.05
2023-02-05T04:42:33.040Z,12.57
2023-02-05T04:45:01.071Z,11.55
2023-02-05T04:47:30.553Z,11.75
2023-02-05T04:49:58.484Z,12.20
2023-02-05T04:52:27.018Z,11.55
2023-02-05T04:54:54.871Z,11.80
2023-02-05T04:57:24.442Z,13.18
2023-02-05T04:59:52.483Z,13.23
2023-02-05T05:02:20.698Z,16.80
2023-02-05T05:04:48.689Z,18.95
2023-02-05T05:07:17.229Z,18.95
2023-02-05T05:09:45.027Z,18.30
2023-02-05T05:12:14.500Z,18.33
2023-02-05T05:14:43.556Z,18.02
2023-02-05T05:17:14.790Z,18.73
2023-02-05T05:19:42.935Z,20.00
2023-02-05T05:22:10.701Z,20.83
2023-02-05T05:24:38.800Z,19.70
2023-02-05T05:27:06.773Z,23.23
2023-02-05T05:29:35.236Z,23.20
2023-02-05T05:32:03.832Z,23.35
2023-02-05T05:34:34.644Z,24.50
2023-02-05T05:37:03.345Z,25.85
2023-02-05T05:39:52.974Z,26.40
2023-02-05T05:42:42.046Z,23.17
2023-02-05T05:45:13.935Z,24.85
2023-02-05T05:47:42.294Z,24.58
2023-02-05T05:50:10.262Z,25.40
2023-02-05T05:52:38.256Z,22.95
2023-02-05T05:55:06.521Z,25.45
2023-02-05T05:57:35.099Z,23.08
2023-02-05T06:00:03.947Z,23.35
2023-02-05T06:02:41.754Z,22.90
2023-02-05T06:05:09.968Z,22.55
2023-02-05T06:07:38.074Z,24.42
2023-02-05T06:10:07.997Z,22.77
2023-02-05T06:12:37.609Z,20.65
2023-02-05T06:15:06.032Z,22.77
2023-02-05T06:17:35.856Z,20.27
2023-02-05T06:20:05.210Z,20.92
2023-02-05T06:22:33.330Z,22.45
2023-02-05T06:25:02.399Z,18.98
2023-02-05T06:27:30.865Z,19.05
2023-02-05T06:30:01.564Z,17.13
2023-02-05T06:32:29.890Z,15.85
2023-02-05T06:34:58.797Z,15.05
2023-02-05T06:37:45.459Z,14.27
2023-02-05T06:40:15.931Z,14.27
2023-02-05T06:42:47.619Z,13.02
2023-02-05T06:45:16.268Z,12.88
2023-02-05T06:47:44.237Z,13.13
2023-02-05T06:50:12.765Z,13.15
2023-02-05T06:52:40.661Z,13.70
2023-02-05T06:55:09.620Z,13.25
2023-02-05T06:57:38.610Z,13.77
2023-02-05T07:00:08.186Z,12.75
2023-02-05T07:02:38.801Z,13.88
2023-02-05T07:05:08.059Z,13.27
2023-02-05T07:07:36.953Z,12.05
2023-02-05T07:10:05.235Z,12.95
2023-02-05T07:12:33.220Z,14.50
2023-02-05T07:15:02.619Z,12.68
2023-02-05T07:17:34.652Z,11.50
2023-02-05T07:20:02.649Z,13.43
2023-02-05T07:22:30.615Z,11.93
2023-02-05T07:24:58.888Z,11.65
2023-02-05T07:27:26.960Z,12.18
2023-02-05T07:29:54.898Z,11.90
2023-02-05T07:32:22.682Z,13.77
2023-02-05T07:34:50.484Z,15.35
2023-02-05T07:37:20.511Z,12.88
2023-02-05T07:39:49.782Z,12.75
2023-02-05T07:42:18.102Z,14.88
2023-02-05T07:44:55.748Z,12.77
2023-02-05T07:47:23.552Z,12.70
2023-02-05T07:49:52.060Z,12.57
2023-02-05T07:52:20.574Z,12.63
2023-02-05T07:54:49.186Z,12.20
2023-02-05T07:57:20.250Z,11.80
2023-02-05T07:59:51.846Z,12.02
2023-02-05T08:02:19.950Z,11.52
2023-02-05T08:04:48.698Z,12.80
2023-02-05T08:07:20.253Z,11.32
2023-02-05T08:09:49.711Z,11.07
2023-02-05T08:12:17.549Z,11.50
2023-02-05T08:14:46.685Z,11.93
2023-02-05T08:17:17.805Z,12.27
2023-02-05T08:19:50.380Z,10.68
2023-02-05T08:22:18.271Z,11.00
2023-02-05T08:24:46.127Z,10.82
2023-02-05T08:27:18.765Z,11.38
2023-02-05T08:29:50.331Z,11.40
2023-02-05T08:32:18.310Z,11.88
2023-02-05T08:34:49.112Z,11.82
2023-02-05T08:37:17.176Z,10.07
2023-02-05T08:39:46.708Z,12.07
2023-02-05T08:42:15.167Z,11.68
2023-02-05T08:44:43.326Z,12.05
2023-02-05T08:47:11.269Z,11.35
2023-02-05T08:49:38.985Z,11.13
2023-02-05T08:52:07.105Z,10.95
2023-02-05T08:54:35.575Z,9.95
2023-02-05T08:57:03.685Z,10.32
2023-02-05T08:59:31.500Z,9.07
2023-02-05T09:01:59.745Z,10.57
2023-02-05T09:04:27.904Z,10.68
2023-02-05T09:06:56.095Z,9.85
2023-02-05T09:09:27.222Z,9.55
2023-02-05T09:11:58.769Z,10.63
2023-02-05T09:14:26.957Z,11.18
2023-02-05T09:16:55.182Z,10.73
2023-02-05T09:19:30.631Z,10.73
2023-02-05T09:22:01.259Z,11.10
2023-02-05T09:24:29.383Z,10.98
2023-02-05T09:26:58.033Z,10.52
2023-02-05T09:29:25.971Z,10.85
2023-02-05T09:31:53.931Z,9.57
2023-02-05T09:34:21.903Z,9.25
2023-02-05T09:36:49.822Z,9.45
2023-02-05T09:39:44.061Z,9.13
2023-02-05T09:42:08.963Z,9.50
2023-02-05T09:45:07.486Z,9.00
2023-02-05T09:47:42.927Z,8.30
2023-02-05T09:50:26.180Z,9.85
2023-02-05T09:53:06.045Z,9.85
2023-02-05T09:55:36.550Z,10.35
2023-02-05T09:58:07.233Z,10.55
2023-02-05T10:00:45.587Z,10.30
2023-02-05T10:03:26.387Z,9.73
2023-02-05T10:06:25.205Z,10.90
2023-02-05T10:08:56.482Z,10.48
2023-02-05T10:11:43.146Z,9.68
2023-02-05T10:14:20.335Z,9.52
2023-02-05T10:17:30.082Z,9.70
2023-02-05T10:20:27.223Z,10.02
2023-02-05T10:23:13.515Z,10.90
2023-02-05T10:25:45.888Z,10.65
2023-02-05T10:28:44.095Z,10.88
2023-02-05T10:31:25.432Z,8.50
2023-02-05T10:33:57.182Z,9.65
2023-02-05T10:36:26.149Z,9.35
2023-02-05T10:38:56.633Z,8.13
2023-02-05T10:41:48.213Z,8.85
2023-02-05T10:44:44.987Z,7.90
2023-02-05T10:47:15.766Z,9.10
2023-02-05T10:49:56.176Z,7.60
2023-02-05T10:52:24.482Z,8.93
2023-02-05T10:54:52.804Z,10.30
2023-02-05T10:57:22.674Z,9.85
2023-02-05T11:00:02.557Z,8.80
2023-02-05T11:02:37.223Z,10.77
2023-02-05T11:05:34.954Z,9.88
2023-02-05T11:08:06.094Z,10.60
2023-02-05T11:10:34.900Z,11.00
2023-02-05T11:13:05.066Z,10.68
2023-02-05T11:15:33.622Z,10.43
2023-02-05T11:18:06.098Z,11.25
2023-02-05T11:20:36.624Z,10.20
2023-02-05T11:23:18.681Z,9.98
2023-02-05T11:25:50.787Z,9.60
2023-02-05T11:28:37.636Z,9.85
2023-02-05T11:31:25.779Z,9.77
2023-02-05T11:34:15.732Z,10.38
2023-02-05T11:36:51.929Z,11.30
2023-02-05T11:39:36.038Z,9.77
2023-02-05T11:42:27.707Z,11.90
2023-02-05T11:45:00.811Z,10.93
2023-02-05T11:47:35.468Z,11.43
2023-02-05T11:50:04.658Z,10.52
2023-02-05T11:52:37.464Z,11.00
2023-02-05T11:55:06.192Z,11.57
2023-02-05T11:57:39.120Z,11.15
2023-02-05T12:00:12.818Z,12.82
2023-02-05T12:02:42.769Z,11.80
2023-02-05T12:05:17.519Z,12.93
2023-02-05T12:08:12.241Z,12.50
2023-02-05T12:10:51.998Z,12.63
2023-02-05T12:13:45.566Z,11.93
2023-02-05T12:16:19.733Z,12.13
2023-02-05T12:19:22.446Z,11.52
2023-02-05T12:22:05.183Z,9.95
2023-02-05T12:24:48.351Z,10.25
2023-02-05T12:27:20.037Z,10.38
2023-02-05T12:30:04.252Z,10.00
2023-02-05T12:32:39.154Z,11.18
2023-02-05T12:35:25.859Z,11.55
2023-02-05T12:38:05.036Z,11.55
2023-02-05T12:40:42.946Z,12.00
2023-02-05T12:43:48.409Z,11.95
2023-02-05T12:46:40.175Z,10.90
2023-02-05T12:49:33.841Z,11.52
2023-02-05T12:52:20.282Z,10.82
2023-02-05T12:57:20.950Z,9.57
2023-02-05T13:00:04.892Z,10.32
2023-02-05T13:02:55.004Z,10.73
2023-02-05T13:05:34.328Z,9.90
2023-02-05T13:08:13.563Z,10.63
2023-02-05T13:10:46.784Z,10.02
2023-02-05T13:13:18.060Z,9.50
2023-02-05T13:15:51.366Z,12.07
2023-02-05T13:18:22.749Z,11.48
2023-02-05T13:21:13.526Z,12.35
2023-02-05T13:23:59.615Z,11.55
2023-02-05T13:26:51.809Z,11.65
2023-02-05T13:29:19.893Z,11.88
2023-02-05T13:31:52.726Z,11.10
2023-02-05T13:34:21.799Z,11.55
2023-02-05T13:37:15.301Z,13.98
2023-02-05T13:40:05.931Z,12.00
2023-02-05T13:42:47.678Z,12.73
2023-02-05T13:45:37.764Z,12.88
2023-02-05T13:48:34.357Z,12.38
2023-02-05T13:51:17.031Z,12.82
2023-02-05T13:53:51.924Z,13.23
2023-02-05T13:56:25.403Z,14.35
2023-02-05T13:59:00.951Z,12.73
2023-02-05T14:01:34.946Z,13.95
2023-02-05T14:04:06.690Z,12.75
2023-02-05T14:06:38.400Z,14.00
2023-02-05T14:09:09.778Z,14.00
2023-02-05T14:11:55.837Z,14.63
2023-02-05T14:14:29.788Z,13.73
2023-02-05T14:16:59.324Z,14.57
2023-02-05T14:19:52.578Z,13.95
2023-02-05T14:22:42.290Z,13.10
2023-02-05T14:25:32.773Z,13.32
2023-02-05T14:28:03.957Z,13.25
2023-02-05T14:30:39.146Z,13.07
2023-02-05T14:33:30.494Z,14.15
2023-02-05T14:36:10.995Z,11.45
2023-02-05T14:38:38.934Z,15.05
2023-02-05T14:41:14.152Z,12.82
2023-02-05T14:43:44.183Z,13.70
2023-02-05T14:46:41.613Z,11.77
2023-02-05T14:49:25.382Z,13.10
2023-02-05T14:52:17.469Z,13.27
2023-02-05T14:55:13.027Z,13.32
2023-02-05T14:57:57.370Z,12.73
2023-02-05T15:00:34.926Z,13.90
2023-02-05T15:03:15.386Z,13.10
2023-02-05T15:05:48.994Z,13.00
2023-02-05T15:08:35.188Z,14.82
2023-02-05T15:13:31.744Z,12.60
2023-02-05T15:16:14.860Z,13.40
2023-02-05T15:18:51.473Z,12.93
2023-02-05T15:21:32.658Z,13.35
2023-02-05T15:24:10.411Z,13.23
2023-02-05T15:27:01.052Z,13.75
2023-02-05T15:29:42.823Z,15.10
2023-02-05T15:32:18.797Z,14.77
2023-02-05T15:34:56.947Z,13.85
2023-02-05T15:38:03.362Z,14.68
2023-02-05T15:40:33.096Z,12.77
2023-02-05T15:43:18.170Z,14.63
2023-02-05T15:45:46.038Z,13.48
2023-02-05T15:48:17.015Z,12.55
2023-02-05T15:50:51.934Z,13.80
2023-02-05T15:53:33.208Z,14.10
2023-02-05T15:56:24.845Z,14.55
2023-02-05T15:58:59.879Z,13.20
2023-02-05T16:01:45.204Z,15.13
2023-02-05T16:04:34.605Z,13.55
2023-02-05T16:07:03.135Z,15.07
2023-02-05T16:09:31.575Z,14.48
2023-02-05T16:12:11.488Z,13.48
2023-02-05T16:14:39.533Z,14.88
2023-02-05T16:17:47.003Z,15.18
2023-02-05T16:20:23.587Z,12.82
2023-02-05T16:23:35.819Z,13.45
2023-02-05T16:26:10.032Z,13.27
2023-02-05T16:28:42.262Z,13.77
2023-02-05T16:34:00.553Z,12.32
2023-02-05T16:36:33.917Z,12.35
2023-02-05T16:39:05.363Z,12.00
2023-02-05T16:41:40.493Z,11.88
2023-02-05T16:44:25.766Z,12.63
2023-02-05T16:47:17.885Z,10.45
2023-02-05T16:49:47.086Z,12.00
2023-02-05T16:52:44.089Z,13.25
2023-02-05T16:55:17.699Z,11.77
2023-02-05T16:57:47.721Z,12.32
2023-02-05T17:00:20.878Z,12.30
2023-02-05T17:02:48.783Z,10.90
2023-02-05T17:05:24.247Z,12.63
2023-02-05T17:07:56.518Z,11.75
2023-02-05T17:10:24.685Z,11.90
2023-02-05T17:13:05.065Z,12.82
2023-02-05T17:15:40.357Z,10.48
2023-02-05T17:18:22.826Z,12.95
2023-02-05T17:20:51.325Z,12.63
2023-02-05T17:23:19.443Z,13.65
2023-02-05T17:25:47.290Z,13.30
2023-02-05T17:28:38.188Z,14.05
2023-02-05T17:31:06.316Z,11.85
2023-02-05T17:33:34.908Z,13.70
2023-02-05T17:36:03.100Z,13.40
2023-02-05T17:38:31.141Z,14.20
2023-02-05T17:41:17.520Z,12.20
2023-02-05T17:43:45.635Z,12.65
2023-02-05T17:46:14.696Z,15.07
2023-02-05T17:48:44.732Z,13.27
2023-02-05T17:51:20.653Z,12.13
2023-02-05T17:53:49.162Z,15.35
2023-02-05T17:56:19.472Z,13.52
2023-02-05T17:58:48.851Z,14.40
2023-02-05T18:01:17.262Z,13.93
2023-02-05T18:03:46.773Z,12.68
2023-02-05T18:06:15.811Z,14.35
2023-02-05T18:08:43.841Z,14.27
2023-02-05T18:11:13.630Z,14.38
2023-02-05T18:13:42.899Z,14.45
2023-02-05T18:16:12.460Z,13.05
2023-02-05T18:18:41.392Z,14.57
2023-02-05T18:21:09.227Z,12.10
2023-02-05T18:23:37.187Z,13.02
2023-02-05T18:26:05.837Z,14.90
2023-02-05T18:28:35.513Z,13.65
2023-02-05T18:31:07.025Z,14.07
2023-02-05T18:33:35.163Z,13.35
2023-02-05T18:36:09.413Z,11.07
2023-02-05T18:38:38.348Z,13.02
2023-02-05T18:41:09.381Z,13.23
2023-02-05T18:43:40.680Z,12.00
2023-02-05T18:46:37.786Z,12.07
2023-02-05T18:49:12.119Z,13.27
2023-02-05T18:51:40.336Z,12.48
2023-02-05T18:54:08.087Z,12.13
2023-02-05T18:56:37.252Z,13.18
2023-02-05T18:59:06.672Z,11.63
2023-02-05T19:01:36.188Z,11.38
2023-02-05T19:04:06.672Z,9.85
2023-02-05T19:06:35.125Z,12.45
2023-02-05T19:09:03.646Z,12.70
2023-02-05T19:11:31.999Z,13.25
2023-02-05T19:14:03.751Z,12.13
2023-02-05T19:16:32.794Z,11.95
2023-02-05T19:19:01.343Z,12.95
2023-02-05T19:21:30.822Z,12.65
2023-02-05T19:24:02.573Z,12.38
2023-02-05T19:26:31.812Z,12.82
2023-02-05T19:29:01.927Z,11.60
2023-02-05T19:31:31.224Z,12.68
2023-02-05T19:33:59.059Z,12.63
2023-02-05T19:36:27.180Z,14.32
2023-02-05T19:38:55.213Z,12.52
2023-02-05T19:41:25.273Z,12.55
2023-02-05T19:43:58.056Z,12.90
2023-02-05T19:46:27.663Z,12.23
2023-02-05T19:48:59.207Z,13.68
2023-02-05T19:51:27.171Z,14.15
2023-02-05T19:54:22.302Z,12.65
2023-02-05T19:56:51.449Z,11.95
2023-02-05T19:59:21.185Z,12.43
2023-02-05T20:01:50.007Z,12.65
2023-02-05T20:04:21.391Z,12.73
2023-02-05T20:06:49.652Z,13.65
2023-02-05T20:09:17.544Z,13.80
2023-02-05T20:11:47.337Z,12.68
2023-02-05T20:14:15.909Z,12.80
2023-02-05T20:17:04.259Z,13.52
2023-02-05T20:19:32.743Z,13.35
2023-02-05T20:22:01.528Z,14.68
2023-02-05T20:24:29.506Z,15.20
2023-02-05T20:26:57.499Z,12.70
2023-02-05T20:29:44.439Z,13.43
2023-02-05T20:32:12.896Z,13.30
2023-02-05T20:34:44.871Z,14.07
2023-02-05T20:37:13.792Z,16.00
2023-02-05T20:39:44.090Z,14.55
2023-02-05T20:42:15.550Z,15.25
2023-02-05T20:44:43.697Z,14.07
2023-02-05T20:47:12.522Z,14.38
2023-02-05T20:49:41.562Z,13.85
2023-02-05T20:52:12.796Z,14.35
2023-02-05T20:54:40.912Z,13.88
2023-02-05T20:57:11.371Z,13.95
2023-02-05T20:59:40.123Z,14.40
2023-02-05T21:02:09.948Z,14.95
2023-02-05T21:04:42.460Z,13.80
2023-02-05T21:07:23.598Z,14.65
2023-02-05T21:09:53.700Z,12.73
2023-02-05T21:12:21.790Z,13.45
2023-02-05T21:14:57.544Z,13.32
2023-02-05T21:17:25.828Z,15.32
2023-02-05T21:19:53.936Z,14.35
2023-02-05T21:22:21.797Z,14.77
2023-02-05T21:24:52.386Z,13.65
2023-02-05T21:27:23.185Z,15.30
2023-02-05T21:29:52.485Z,14.13
2023-02-05T21:32:20.351Z,14.13
2023-02-05T21:34:48.286Z,15.00
2023-02-05T21:37:19.327Z,13.48
2023-02-05T21:39:48.057Z,14.25
2023-02-05T21:42:16.262Z,13.80
2023-02-05T21:44:49.299Z,14.95
2023-02-05T21:47:17.436Z,14.38
2023-02-05T21:49:45.841Z,14.77
2023-02-05T21:52:13.901Z,14.40
2023-02-05T21:54:42.385Z,12.15
2023-02-05T21:57:10.292Z,14.98
2023-02-05T21:59:38.769Z,13.95
2023-02-05T22:02:06.772Z,14.05
2023-02-05T22:04:35.465Z,13.57
2023-02-05T22:07:03.929Z,15.25
2023-02-05T22:09:33.435Z,13.73
2023-02-05T22:12:05.871Z,13.45
2023-02-05T22:14:36.700Z,13.85
2023-02-05T22:17:04.828Z,13.43
2023-02-05T22:19:35.446Z,12.40
2023-02-05T22:22:03.961Z,13.52
2023-02-05T22:24:32.037Z,12.05
2023-02-05T22:27:07.947Z,13.52
2023-02-05T22:29:58.611Z,12.32
2023-02-05T22:32:29.394Z,12.27
2023-02-05T22:38:21.672Z,12.30
2023-02-05T22:40:50.410Z,11.95
2023-02-05T22:43:18.513Z,11.85
2023-02-05T22:45:47.656Z,12.18
2023-02-05T22:48:15.654Z,11.25
2023-02-05T22:50:44.110Z,11.32
2023-02-05T22:53:12.902Z,11.55
2023-02-05T22:55:42.627Z,12.45
2023-02-05T22:58:14.965Z,11.23
2023-02-05T23:00:43.018Z,11.82
2023-02-05T23:03:11.018Z,11.63
2023-02-05T23:05:40.101Z,11.55
2023-02-05T23:08:08.548Z,11.65
2023-02-05T23:10:36.515Z,11.32
2023-02-05T23:13:05.176Z,11.02
2023-02-05T23:15:35.685Z,11.15
2023-02-05T23:18:04.125Z,10.75
2023-02-05T23:20:32.039Z,10.60
2023-02-05T23:22:59.957Z,11.45
2023-02-05T23:25:28.010Z,11.32
2023-02-05T23:27:56.652Z,11.32
2023-02-05T23:30:24.981Z,11.18
2023-02-05T23:32:54.248Z,10.23
2023-02-05T23:35:22.515Z,12.43
2023-02-05T23:37:50.434Z,11.05
2023-02-05T23:40:19.735Z,11.20
2023-02-05T23:42:47.702Z,11.60
2023-02-05T23:45:15.808Z,11.10
2023-02-05T23:47:43.582Z,11.25
2023-02-05T23:50:11.317Z,11.38
2023-02-05T23:52:39.895Z,10.23
2023-02-05T23:55:08.592Z,10.55
2023-02-05T23:57:36.724Z,11.32
